createdAt,value
2024-04-01T00:01:27.772Z,98793.38
2024-04-01T00:04:31.452Z,98793.41
2024-04-01T00:07:35.115Z,98798.98
2024-04-01T00:10:39.324Z,98792.64
2024-04-01T00:13:43.068Z,98797.83
2024-04-01T00:16:46.745Z,98798.25
2024-04-01T00:19:50.421Z,98803.77
2024-04-01T00:22:54.083Z,98809.70
2024-04-01T00:25:57.820Z,98808.06
2024-04-01T00:29:01.491Z,98807.93
2024-04-01T00:32:05.515Z,98810.25
2024-04-01T00:35:10.819Z,98808.91
2024-04-01T00:38:14.555Z,98806.24
2024-04-01T00:41:18.235Z,98806.87
2024-04-01T00:44:21.951Z,98800.26
2024-04-01T00:47:26.222Z,98803.02
2024-04-01T00:50:32.154Z,98797.20
2024-04-01T00:53:36.447Z,98794.27
2024-04-01T00:56:44.703Z,98795.85
2024-04-01T00:59:50.573Z,98793.79
2024-04-01T01:02:54.861Z,98794.48
2024-04-01T01:05:58.748Z,98789.48
2024-04-01T01:09:02.536Z,98794.66
2024-04-01T01:12:07.111Z,98791.89
2024-04-01T01:15:11.308Z,98787.25
2024-04-01T01:18:15.090Z,98785.38
2024-04-01T01:21:18.788Z,98789.63
2024-04-01T01:24:22.858Z,98787.77
2024-04-01T01:27:26.744Z,98789.23
2024-04-01T01:30:32.025Z,98793.80
2024-04-01T01:33:35.717Z,98790.34
2024-04-01T01:36:39.484Z,98791.32
2024-04-01T01:39:43.233Z,98789.36
2024-04-01T01:42:47.632Z,98787.64
2024-04-01T01:45:51.281Z,98786.95
2024-04-01T01:48:54.971Z,98789.90
2024-04-01T01:51:58.624Z,98795.00
2024-04-01T01:55:03.552Z,98796.13
2024-04-01T01:58:07.241Z,98806.70
2024-04-01T02:01:10.893Z,98805.30
2024-04-01T02:04:14.546Z,98802.61
2024-04-01T02:07:18.398Z,98804.53
2024-04-01T02:10:24.968Z,98806.39
2024-04-01T02:13:28.733Z,98810.86
2024-04-01T02:16:32.443Z,98817.16
2024-04-01T02:19:36.749Z,98815.55
2024-04-01T02:22:40.442Z,98816.47
2024-04-01T02:25:44.105Z,98819.07
2024-04-01T02:28:47.845Z,98810.90
2024-04-01T02:31:51.881Z,98803.99
2024-04-01T02:34:55.583Z,98802.06
2024-04-01T02:37:59.242Z,98801.61
2024-04-01T02:41:03.112Z,98796.85
2024-04-01T02:44:06.974Z,98793.73
2024-04-01T02:47:10.663Z,98784.47
2024-04-01T02:50:14.585Z,98787.68
2024-04-01T02:53:18.277Z,98790.76
2024-04-01T02:56:21.926Z,98791.67
2024-04-01T02:59:25.604Z,98789.74
2024-04-01T03:02:29.278Z,98789.64
2024-04-01T03:05:39.845Z,98787.20
2024-04-01T03:08:43.548Z,98785.73
2024-04-01T03:11:47.361Z,98783.90
2024-04-01T03:14:51.019Z,98787.34
2024-04-01T03:17:54.641Z,98787.66
2024-04-01T03:20:58.469Z,98789.56
2024-04-01T03:24:02.148Z,98785.37
2024-04-01T03:27:05.858Z,98792.69
2024-04-01T03:30:11.050Z,98795.60
2024-04-01T03:33:16.333Z,98796.05
2024-04-01T03:36:22.848Z,98789.15
2024-04-01T03:39:29.903Z,98781.48
2024-04-01T03:42:33.545Z,98780.42
2024-04-01T03:45:37.773Z,98780.06
2024-04-01T03:48:41.481Z,98783.30
2024-04-01T03:51:45.289Z,98785.29
2024-04-01T03:54:49.074Z,98783.95
2024-04-01T03:57:52.732Z,98782.39
2024-04-01T04:00:56.403Z,98783.45
2024-04-01T04:04:00.340Z,98786.59
2024-04-01T04:07:04.383Z,98786.51
2024-04-01T04:10:08.423Z,98788.58
2024-04-01T04:13:12.525Z,98779.48
2024-04-01T04:16:16.204Z,98773.24
2024-04-01T04:19:21.118Z,98776.52
2024-04-01T04:22:24.930Z,98778.73
2024-04-01T04:25:28.593Z,98780.45
2024-04-01T04:28:32.288Z,98777.27
2024-04-01T04:31:36.442Z,98777.07
2024-04-01T04:34:43.274Z,98778.45
2024-04-01T04:37:46.991Z,98782.42
2024-04-01T04:40:51.006Z,98779.73
2024-04-01T04:43:55.975Z,98779.05
2024-04-01T04:46:59.669Z,98782.71
2024-04-01T04:50:03.795Z,98790.99
2024-04-01T04:53:07.499Z,98791.41
2024-04-01T04:56:12.610Z,98797.60
2024-04-01T04:59:16.250Z,98808.37
2024-04-01T05:02:19.891Z,98808.30
2024-04-01T05:05:24.610Z,98809.95
2024-04-01T05:08:29.031Z,98811.36
2024-04-01T05:11:32.833Z,98808.37
2024-04-01T05:14:36.575Z,98803.37
2024-04-01T05:17:40.321Z,98803.14
2024-04-01T05:20:45.477Z,98810.20
2024-04-01T05:23:49.236Z,98806.64
2024-04-01T05:26:53.747Z,98810.43
2024-04-01T05:30:05.281Z,98808.88
2024-04-01T05:33:08.931Z,98800.93
2024-04-01T05:36:12.659Z,98803.05
2024-04-01T05:39:16.366Z,98805.34
2024-04-01T05:42:21.167Z,98799.54
2024-04-01T05:45:24.837Z,98798.77
2024-04-01T05:48:28.491Z,98800.68
2024-04-01T05:51:32.122Z,98798.48
2024-04-01T05:54:36.025Z,98798.89
2024-04-01T05:57:40.014Z,98793.46
2024-04-01T06:00:43.682Z,98789.85
2024-04-01T06:03:47.399Z,98788.15
2024-04-01T06:06:52.088Z,98787.34
2024-04-01T06:09:59.291Z,98780.01
2024-04-01T06:13:03.824Z,98777.43
2024-04-01T06:16:07.701Z,98781.71
2024-04-01T06:19:11.439Z,98783.97
2024-04-01T06:22:15.143Z,98784.94
2024-04-01T06:25:19.243Z,98777.82
2024-04-01T06:28:22.905Z,98783.52
2024-04-01T06:31:26.559Z,98791.14
2024-04-01T06:34:30.262Z,98793.08
2024-04-01T06:37:35.650Z,98790.59
2024-04-01T06:40:39.422Z,98797.91
2024-04-01T06:43:43.215Z,98794.45
2024-04-01T06:46:46.929Z,98796.33
2024-04-01T06:49:50.615Z,98796.80
2024-04-01T06:52:54.271Z,98800.77
2024-04-01T06:55:58.029Z,98805.00
2024-04-01T06:59:01.847Z,98798.79
2024-04-01T07:02:06.179Z,98795.81
2024-04-01T07:05:09.827Z,98805.38
2024-04-01T07:08:13.523Z,98812.29
2024-04-01T07:11:17.208Z,98813.54
2024-04-01T07:14:21.722Z,98808.63
2024-04-01T07:17:25.801Z,98808.10
2024-04-01T07:20:29.456Z,98813.21
2024-04-01T07:23:33.130Z,98810.05
2024-04-01T07:26:36.794Z,98811.89
2024-04-01T07:29:40.574Z,98815.16
2024-04-01T07:32:44.215Z,98820.84
2024-04-01T07:35:47.899Z,98828.52
2024-04-01T07:38:51.750Z,98833.31
2024-04-01T07:41:55.390Z,98845.92
2024-04-01T07:44:59.156Z,98846.41
2024-04-01T07:48:03.096Z,98824.45
2024-04-01T07:51:06.920Z,98804.06
2024-04-01T07:54:10.603Z,98799.83
2024-04-01T07:57:14.258Z,98793.74
2024-04-01T08:00:18.082Z,98784.77
2024-04-01T08:03:21.759Z,98773.14
2024-04-01T08:06:25.505Z,98766.58
2024-04-01T08:09:29.675Z,98762.80
2024-04-01T08:12:33.334Z,98761.42
2024-04-01T08:15:36.983Z,98767.49
2024-04-01T08:18:40.652Z,98773.79
2024-04-01T08:21:44.304Z,98773.98
2024-04-01T08:24:48.232Z,98768.41
2024-04-01T08:27:52.051Z,98763.61
2024-04-01T08:30:55.731Z,98762.48
2024-04-01T08:33:59.431Z,98776.83
2024-04-01T08:37:03.168Z,98784.20
2024-04-01T08:40:08.196Z,98793.59
2024-04-01T08:43:17.160Z,98787.63
2024-04-01T08:46:22.258Z,98785.11
2024-04-01T08:49:33.295Z,98782.34
2024-04-01T08:52:55.419Z,98787.64
2024-04-01T08:55:59.426Z,98784.23
2024-04-01T08:59:03.280Z,98781.62
2024-04-01T09:02:06.999Z,98793.02
2024-04-01T09:05:10.746Z,98792.15
2024-04-01T09:08:14.434Z,98793.45
2024-04-01T09:11:18.319Z,98789.83
2024-04-01T09:14:22.069Z,98780.06
2024-04-01T09:17:27.571Z,98779.33
2024-04-01T09:20:32.517Z,98768.33
2024-04-01T09:23:43.090Z,98763.90
2024-04-01T09:26:48.778Z,98770.60
2024-04-01T09:29:53.588Z,98777.75
2024-04-01T09:32:57.933Z,98786.54
2024-04-01T09:36:02.098Z,98790.27
2024-04-01T09:39:05.786Z,98782.58
2024-04-01T09:42:10.954Z,98771.05
2024-04-01T09:45:14.649Z,98764.85
2024-04-01T09:48:20.150Z,98761.66
2024-04-01T09:51:25.235Z,98753.41
2024-04-01T09:54:29.040Z,98745.67
2024-04-01T09:57:51.818Z,98744.53
2024-04-01T10:01:05.868Z,98748.48
2024-04-01T10:04:34.336Z,98751.33
2024-04-01T10:08:02.730Z,98749.20
2024-04-01T10:11:25.233Z,98735.05
2024-04-01T10:14:44.126Z,98730.86
2024-04-01T10:17:53.658Z,98721.87
2024-04-01T10:21:06.829Z,98714.35
2024-04-01T10:24:38.581Z,98714.55
2024-04-01T10:27:50.747Z,98706.02
2024-04-01T10:31:22.176Z,98696.77
2024-04-01T10:34:34.786Z,98703.33
2024-04-01T10:38:10.306Z,98702.09
2024-04-01T10:41:47.132Z,98694.08
2024-04-01T10:45:26.203Z,98690.48
2024-04-01T10:48:30.318Z,98689.74
2024-04-01T10:52:12.233Z,98684.35
2024-04-01T10:55:24.881Z,98684.38
2024-04-01T10:58:50.062Z,98684.06
2024-04-01T11:02:11.568Z,98682.46
2024-04-01T11:05:33.710Z,98681.09
2024-04-01T11:08:55.117Z,98678.83
2024-04-01T11:12:35.992Z,98680.98
2024-04-01T11:15:40.851Z,98680.17
2024-04-01T11:19:01.040Z,98688.27
2024-04-01T11:22:05.838Z,98681.61
2024-04-01T11:25:19.623Z,98677.42
2024-04-01T11:28:51.258Z,98671.77
2024-04-01T11:32:04.971Z,98656.46
2024-04-01T11:35:27.172Z,98649.90
2024-04-01T11:39:04.361Z,98652.40
2024-04-01T11:42:10.828Z,98645.39
2024-04-01T11:45:18.595Z,98631.52
2024-04-01T11:48:22.973Z,98627.20
2024-04-01T11:51:36.957Z,98627.95
2024-04-01T11:54:40.988Z,98622.83
2024-04-01T11:57:44.701Z,98627.80
2024-04-01T12:01:01.625Z,98614.82
2024-04-01T12:04:06.652Z,98610.23
2024-04-01T12:07:12.598Z,98607.14
2024-04-01T12:10:16.528Z,98606.68
2024-04-01T12:13:28.174Z,98600.02
2024-04-01T12:16:35.120Z,98596.67
2024-04-01T12:19:39.183Z,98591.19
2024-04-01T12:22:43.196Z,98589.91
2024-04-01T12:25:46.930Z,98586.42
2024-04-01T12:28:53.774Z,98575.20
2024-04-01T12:31:57.457Z,98574.34
2024-04-01T12:35:03.333Z,98562.80
2024-04-01T12:38:11.846Z,98554.61
2024-04-01T12:41:23.134Z,98558.40
2024-04-01T12:44:26.874Z,98559.17
2024-04-01T12:47:30.843Z,98549.97
2024-04-01T12:50:35.677Z,98545.19
2024-04-01T12:54:11.367Z,98540.92
2024-04-01T12:57:26.151Z,98536.28
2024-04-01T13:00:37.289Z,98530.61
2024-04-01T13:03:48.923Z,98532.61
2024-04-01T13:07:12.222Z,98536.03
2024-04-01T13:10:27.418Z,98537.45
2024-04-01T13:13:56.689Z,98534.94
2024-04-01T13:17:14.184Z,98526.32
2024-04-01T13:20:26.555Z,98519.77
2024-04-01T13:23:46.799Z,98528.52
2024-04-01T13:27:28.804Z,98527.64
2024-04-01T13:30:58.525Z,98527.23
2024-04-01T13:34:27.647Z,98519.38
2024-04-01T13:37:43.057Z,98525.98
2024-04-01T13:41:20.257Z,98519.05
2024-04-01T13:44:56.505Z,98513.30
2024-04-01T13:48:41.370Z,98518.55
2024-04-01T13:51:55.238Z,98521.23
2024-04-01T13:55:09.255Z,98526.99
2024-04-01T13:58:25.037Z,98515.31
2024-04-01T14:01:40.413Z,98511.13
2024-04-01T14:05:14.082Z,98511.98
2024-04-01T14:08:42.322Z,98506.50
2024-04-01T14:11:55.253Z,98497.70
2024-04-01T14:15:26.463Z,98500.23
2024-04-01T14:18:51.410Z,98492.61
2024-04-01T14:21:56.142Z,98494.77
2024-04-01T14:25:04.656Z,98487.42
2024-04-01T14:28:08.411Z,98488.52
2024-04-01T14:31:13.306Z,98480.70
2024-04-01T14:34:17.229Z,98481.45
2024-04-01T14:37:21.810Z,98479.94
2024-04-01T14:40:26.536Z,98474.82
2024-04-01T14:43:30.425Z,98474.92
2024-04-01T14:46:34.964Z,98471.59
2024-04-01T14:49:38.927Z,98466.94
2024-04-01T14:52:44.247Z,98461.69
2024-04-01T14:55:48.508Z,98457.31
2024-04-01T14:58:52.427Z,98449.15
2024-04-01T15:01:57.155Z,98446.30
2024-04-01T15:05:01.061Z,98444.96
2024-04-01T15:08:09.685Z,98442.17
2024-04-01T15:11:13.482Z,98435.63
2024-04-01T15:14:22.450Z,98431.27
2024-04-01T15:17:26.945Z,98428.44
2024-04-01T15:20:30.681Z,98422.80
2024-04-01T15:23:34.478Z,98417.74
2024-04-01T15:26:39.503Z,98413.64
2024-04-01T15:29:43.328Z,98408.55
2024-04-01T15:32:47.353Z,98406.48
2024-04-01T15:35:51.199Z,98401.27
2024-04-01T15:38:55.269Z,98397.30
2024-04-01T15:41:59.764Z,98392.39
2024-04-01T15:45:08.006Z,98397.11
2024-04-01T15:48:14.656Z,98391.13
2024-04-01T15:51:19.730Z,98387.22
2024-04-01T15:54:26.961Z,98382.71
2024-04-01T15:57:31.430Z,98383.84
2024-04-01T16:00:35.241Z,98382.66
2024-04-01T16:03:39.542Z,98382.41
2024-04-01T16:06:44.937Z,98377.59
2024-04-01T16:09:53.250Z,98380.65
2024-04-01T16:13:00.074Z,98379.64
2024-04-01T16:16:14.586Z,98373.52
2024-04-01T16:19:23.507Z,98367.56
2024-04-01T16:22:30.105Z,98367.36
2024-04-01T16:25:38.005Z,98370.87
2024-04-01T16:28:47.926Z,98372.94
2024-04-01T16:31:54.351Z,98366.16
2024-04-01T16:34:58.775Z,98359.58
2024-04-01T16:38:02.722Z,98354.77
2024-04-01T16:41:08.208Z,98352.27
2024-04-01T16:44:13.482Z,98351.50
2024-04-01T16:47:21.713Z,98351.50
2024-04-01T16:50:25.949Z,98351.58
2024-04-01T16:53:33.939Z,98348.57
2024-04-01T16:56:38.744Z,98342.79
2024-04-01T16:59:43.261Z,98339.34
2024-04-01T17:02:49.708Z,98332.91
2024-04-01T17:05:54.263Z,98329.15
2024-04-01T17:08:58.437Z,98328.68
2024-04-01T17:12:07.346Z,98329.36
2024-04-01T17:15:13.278Z,98330.26
2024-04-01T17:18:17.347Z,98327.84
2024-04-01T17:21:23.085Z,98331.80
2024-04-01T17:24:31.312Z,98333.45
2024-04-01T17:27:35.078Z,98339.23
2024-04-01T17:30:40.299Z,98342.70
2024-04-01T17:33:46.368Z,98341.70
2024-04-01T17:36:51.023Z,98345.60
2024-04-01T17:39:54.895Z,98348.11
2024-04-01T17:42:58.681Z,98346.73
2024-04-01T17:46:03.198Z,98345.10
2024-04-01T17:49:07.140Z,98347.60
2024-04-01T17:52:11.097Z,98347.23
2024-04-01T17:55:14.928Z,98349.58
2024-04-01T17:58:19.769Z,98351.02
2024-04-01T18:01:23.528Z,98355.92
2024-04-01T18:04:27.300Z,98357.29
2024-04-01T18:07:31.857Z,98357.88
2024-04-01T18:10:36.280Z,98362.73
2024-04-01T18:13:39.935Z,98362.86
2024-04-01T18:16:43.695Z,98359.72
2024-04-01T18:19:48.287Z,98356.15
2024-04-01T18:22:53.855Z,98362.17
2024-04-01T18:26:00.077Z,98360.86
2024-04-01T18:29:04.484Z,98361.91
2024-04-01T18:32:08.785Z,98366.00
2024-04-01T18:35:12.920Z,98366.10
2024-04-01T18:38:16.696Z,98362.74
2024-04-01T18:41:20.979Z,98362.00
2024-04-01T18:44:25.851Z,98362.64
2024-04-01T18:47:32.162Z,98362.71
2024-04-01T18:50:35.985Z,98365.11
2024-04-01T18:53:40.044Z,98363.10
2024-04-01T18:56:44.140Z,98365.65
2024-04-01T18:59:47.855Z,98360.21
2024-04-01T19:02:51.551Z,98360.02
2024-04-01T19:05:55.329Z,98361.13
2024-04-01T19:09:00.579Z,98361.67
2024-04-01T19:12:04.600Z,98361.55
2024-04-01T19:15:08.664Z,98361.52
2024-04-01T19:18:13.431Z,98367.45
2024-04-01T19:21:20.676Z,98369.85
2024-04-01T19:24:24.334Z,98371.33
2024-04-01T19:27:27.997Z,98366.17
2024-04-01T19:30:31.747Z,98366.37
2024-04-01T19:33:48.267Z,98364.89
2024-04-01T19:36:54.057Z,98363.73
2024-04-01T19:39:58.091Z,98366.30
2024-04-01T19:43:01.796Z,98366.25
2024-04-01T19:46:08.270Z,98364.99
2024-04-01T19:49:11.975Z,98359.29
2024-04-01T19:52:19.558Z,98359.06
2024-04-01T19:55:23.234Z,98356.38
2024-04-01T19:58:26.936Z,98349.40
2024-04-01T20:01:38.346Z,98345.35
2024-04-01T20:04:42.013Z,98348.30
2024-04-01T20:07:45.673Z,98347.93
2024-04-01T20:10:49.508Z,98348.73
2024-04-01T20:13:53.331Z,98347.16
2024-04-01T20:16:57.376Z,98341.59
2024-04-01T20:20:05.131Z,98334.35
2024-04-01T20:23:14.730Z,98330.05
2024-04-01T20:26:18.437Z,98329.97
2024-04-01T20:29:23.330Z,98331.81
2024-04-01T20:32:27.262Z,98335.40
2024-04-01T20:35:30.916Z,98334.84
2024-04-01T20:38:35.097Z,98331.11
2024-04-01T20:41:38.758Z,98332.31
2024-04-01T20:44:42.393Z,98324.91
2024-04-01T20:47:46.100Z,98322.73
2024-04-01T20:50:50.713Z,98318.13
2024-04-01T20:54:21.213Z,98317.81
2024-04-01T20:57:18.309Z,98316.46
2024-04-01T21:00:36.980Z,98314.95
2024-04-01T21:03:40.631Z,98315.52
2024-04-01T21:06:49.117Z,98322.52
2024-04-01T21:09:54.338Z,98326.34
2024-04-01T21:12:59.287Z,98329.83
2024-04-01T21:16:03.173Z,98328.71
2024-04-01T21:19:07.357Z,98326.59
2024-04-01T21:22:11.034Z,98317.11
2024-04-01T21:25:14.737Z,98316.23
2024-04-01T21:28:18.705Z,98318.15
2024-04-01T21:31:22.461Z,98322.60
2024-04-01T21:34:26.161Z,98309.80
2024-04-01T21:37:43.511Z,98312.99
2024-04-01T21:40:47.175Z,98314.58
2024-04-01T21:43:50.818Z,98309.34
2024-04-01T21:46:54.468Z,98314.27
2024-04-01T21:49:58.218Z,98312.21
2024-04-01T21:53:01.980Z,98312.30
2024-04-01T21:56:05.819Z,98325.35
2024-04-01T21:59:10.652Z,98327.42
2024-04-01T22:02:14.354Z,98333.71
2024-04-01T22:05:18.253Z,98346.05
2024-04-01T22:08:21.904Z,98358.17
2024-04-01T22:11:25.567Z,98351.33
2024-04-01T22:14:29.230Z,98352.42
2024-04-01T22:17:33.217Z,98345.27
2024-04-01T22:20:37.034Z,98338.17
2024-04-01T22:23:40.711Z,98329.02
2024-04-01T22:26:46.553Z,98323.59
2024-04-01T22:29:54.381Z,98319.36
2024-04-01T22:32:58.058Z,98336.63
2024-04-01T22:36:02.029Z,98332.80
2024-04-01T22:39:09.052Z,98346.27
2024-04-01T22:42:13.071Z,98347.69
2024-04-01T22:45:16.825Z,98360.13
2024-04-01T22:48:20.463Z,98361.86
2024-04-01T22:51:24.174Z,98357.90
2024-04-01T22:54:37.168Z,98354.17
2024-04-01T22:57:40.934Z,98353.13
2024-04-01T23:00:44.591Z,98366.58
2024-04-01T23:03:48.254Z,98363.16
2024-04-01T23:06:53.555Z,98357.29
2024-04-01T23:09:57.372Z,98354.98
2024-04-01T23:13:01.126Z,98356.96
2024-04-01T23:16:10.517Z,98351.80
2024-04-01T23:19:14.239Z,98344.16
2024-04-01T23:22:17.932Z,98342.10
2024-04-01T23:25:22.417Z,98342.83
2024-04-01T23:28:26.085Z,98333.52
2024-04-01T23:31:29.801Z,98328.66
2024-04-01T23:34:33.614Z,98325.80
2024-04-01T23:37:37.274Z,98318.41
2024-04-01T23:40:41.116Z,98307.27
2024-04-01T23:43:45.493Z,98301.45
2024-04-01T23:46:49.699Z,98299.08
2024-04-01T23:49:53.340Z,98298.03
2024-04-01T23:52:57.058Z,98287.06
2024-04-01T23:56:02.569Z,98287.77
2024-04-01T23:59:06.954Z,98292.06
